createdAt,value
2018-06-23T00:00:02.423Z,1.23
2018-06-23T00:02:33.803Z,0.93
2018-06-23T00:05:04.592Z,0.57
2018-06-23T00:07:35.260Z,0.70
2018-06-23T00:10:06.329Z,0.50
2018-06-23T00:12:37.083Z,0.80
2018-06-23T00:15:07.803Z,0.60
2018-06-23T00:17:38.546Z,0.70
2018-06-23T01:27:46.020Z,0.60
2018-06-23T01:30:16.789Z,0.83
2018-06-23T01:32:47.568Z,0.60
2018-06-23T01:35:18.468Z,0.90
2018-06-23T01:37:49.219Z,0.70
2018-06-23T01:40:19.931Z,0.80
2018-06-23T01:42:50.708Z,0.33
2018-06-23T01:45:21.504Z,0.70
2018-06-23T01:47:52.194Z,0.60
2018-06-23T01:50:22.902Z,0.90
2018-06-23T01:52:53.642Z,0.50
2018-06-23T01:55:24.370Z,1.07
2018-06-23T01:57:55.119Z,0.50
2018-06-23T02:00:25.816Z,0.77
2018-06-23T02:02:56.502Z,0.60
2018-06-23T02:05:27.260Z,0.57
2018-06-23T02:07:58.074Z,1.57
2018-06-23T02:10:28.753Z,0.83
2018-06-23T02:12:59.510Z,1.00
2018-06-23T02:15:35.291Z,1.03
2018-06-23T02:18:11.220Z,1.20
2018-06-23T02:20:47.092Z,0.93
2018-06-23T02:23:22.821Z,1.00
2018-06-23T02:25:58.685Z,0.80
2018-06-23T02:28:35.738Z,0.80
2018-06-23T02:31:11.419Z,0.77
2018-06-23T02:33:47.219Z,1.20
2018-06-23T02:36:18.107Z,0.80
2018-06-23T02:38:48.811Z,0.90
2018-06-23T02:41:19.128Z,0.60
2018-06-23T02:43:49.825Z,1.33
2018-06-23T02:46:20.617Z,1.10
2018-06-23T02:48:51.222Z,0.87
2018-06-23T02:51:22.031Z,0.90
2018-06-23T02:53:52.767Z,0.83
2018-06-23T02:56:23.551Z,0.90
2018-06-23T02:58:54.318Z,1.10
2018-06-23T03:01:25.024Z,0.83
2018-06-23T03:03:55.767Z,1.03
2018-06-23T03:06:26.418Z,1.00
2018-06-23T03:08:57.215Z,0.80
2018-06-23T03:11:27.960Z,1.10
2018-06-23T03:13:58.629Z,1.00
2018-06-23T03:16:29.390Z,1.00
2018-06-23T03:19:00.065Z,1.23
2018-06-23T03:21:30.707Z,1.30
2018-06-23T03:24:01.438Z,1.43
2018-06-23T03:26:32.140Z,1.20
2018-06-23T03:29:02.574Z,1.10
2018-06-23T03:31:33.152Z,0.97
2018-06-23T03:34:03.815Z,1.20
2018-06-23T03:36:34.024Z,0.90
2018-06-23T03:39:06.301Z,0.80
2018-06-23T03:41:36.876Z,1.00
2018-06-23T03:44:07.706Z,1.00
2018-06-23T03:46:38.367Z,0.77
2018-06-23T03:49:09.161Z,0.70
2018-06-23T03:51:39.830Z,0.97
2018-06-23T03:54:10.498Z,0.70
2018-06-23T03:56:41.277Z,1.00
2018-06-23T03:59:12.154Z,0.50
2018-06-23T04:01:42.742Z,0.67
2018-06-23T04:04:13.450Z,0.57
2018-06-23T04:06:44.128Z,0.63
2018-06-23T04:09:14.783Z,0.83
2018-06-23T04:11:45.532Z,0.70
2018-06-23T04:14:15.798Z,0.77
2018-06-23T04:16:46.435Z,0.80
2018-06-23T04:19:17.215Z,0.90
2018-06-23T04:21:47.999Z,0.93
2018-06-23T04:24:18.957Z,0.80
2018-06-23T04:26:49.646Z,1.17
2018-06-23T04:29:20.572Z,0.90
2018-06-23T04:31:50.858Z,0.90
2018-06-23T04:34:21.563Z,0.83
2018-06-23T04:36:52.274Z,0.60
2018-06-23T04:39:23.103Z,0.90
2018-06-23T04:41:53.784Z,1.00
2018-06-23T04:44:24.741Z,0.90
2018-06-23T04:46:55.903Z,0.80
2018-06-23T04:49:26.100Z,0.60
2018-06-23T04:51:56.750Z,0.90
2018-06-23T04:54:27.502Z,0.50
2018-06-23T04:56:58.609Z,0.50
2018-06-23T04:59:29.237Z,0.70
2018-06-23T05:01:59.940Z,0.70
2018-06-23T05:04:30.672Z,0.50
2018-06-23T05:07:01.425Z,0.40
2018-06-23T05:09:32.140Z,0.30
2018-06-23T05:12:02.822Z,0.47
2018-06-23T05:14:33.061Z,0.87
2018-06-23T05:17:03.637Z,0.70
2018-06-23T05:19:34.896Z,0.60
2018-06-23T05:22:05.524Z,0.50
2018-06-23T05:24:36.186Z,0.50
2018-06-23T05:27:06.407Z,0.40
2018-06-23T05:29:36.875Z,0.60
2018-06-23T05:32:07.545Z,0.50
2018-06-23T06:56:39.664Z,1.10
2018-06-23T06:59:09.948Z,0.93
2018-06-23T07:01:40.543Z,0.90
2018-06-23T07:04:11.291Z,0.60
2018-06-23T07:06:41.965Z,0.70
2018-06-23T07:09:15.958Z,0.80
2018-06-23T07:11:46.688Z,0.80
2018-06-23T07:14:18.722Z,1.40
2018-06-23T07:16:50.226Z,0.90
2018-06-23T07:19:20.889Z,0.70
2018-06-23T07:21:51.714Z,0.80
2018-06-23T07:24:22.548Z,0.70
2018-06-23T07:26:53.050Z,0.50
2018-06-23T07:29:23.346Z,0.70
2018-06-23T07:31:54.023Z,0.50
2018-06-23T07:34:24.896Z,0.67
2018-06-23T07:36:55.562Z,1.13
2018-06-23T07:39:26.339Z,1.20
2018-06-23T07:41:56.565Z,0.90
2018-06-23T07:44:27.195Z,0.80
2018-06-23T07:46:57.659Z,1.10
2018-06-23T07:49:30.149Z,0.67
2018-06-23T07:52:00.868Z,0.97
2018-06-23T07:54:31.513Z,1.30
2018-06-23T07:57:02.380Z,1.03
2018-06-23T07:59:33.212Z,1.00
2018-06-23T08:02:03.981Z,1.23
2018-06-23T08:04:34.893Z,1.10
2018-06-23T08:07:05.690Z,1.53
2018-06-23T08:09:36.414Z,1.47
2018-06-23T08:12:07.326Z,1.60
2018-06-23T08:14:39.262Z,1.17
2018-06-23T08:17:14.664Z,1.10
2018-06-23T08:19:45.491Z,1.23
2018-06-23T08:22:16.400Z,1.73
2018-06-23T08:24:47.137Z,1.60
2018-06-23T08:27:17.950Z,1.70
2018-06-23T08:29:49.293Z,1.50
2018-06-23T08:32:20.181Z,1.63
2018-06-23T08:34:51.042Z,1.30
2018-06-23T08:37:21.805Z,1.40
2018-06-23T08:39:52.037Z,1.33
2018-06-23T08:42:22.681Z,1.17
2018-06-23T08:44:53.611Z,1.30
2018-06-23T08:47:25.046Z,1.63
2018-06-23T08:49:55.380Z,1.40
2018-06-23T08:52:26.069Z,1.70
2018-06-23T08:54:58.526Z,1.07
2018-06-23T08:57:29.560Z,1.20
2018-06-23T09:00:00.319Z,1.10
2018-06-23T09:02:32.752Z,1.37
2018-06-23T09:05:03.501Z,1.57
2018-06-23T09:07:34.325Z,1.30
2018-06-23T09:10:05.093Z,1.53
2018-06-23T09:12:35.890Z,1.30
2018-06-23T09:15:06.810Z,1.40
2018-06-23T09:17:37.660Z,1.80
2018-06-23T09:20:08.502Z,1.60
2018-06-23T09:22:39.227Z,1.83
2018-06-23T09:25:10.157Z,1.40
2018-06-23T09:27:40.907Z,2.00
2018-06-23T09:30:11.723Z,1.50
2018-06-23T09:32:42.569Z,2.13
2018-06-23T09:35:13.355Z,1.60
2018-06-23T09:37:44.025Z,1.80
2018-06-23T09:40:14.802Z,2.20
2018-06-23T09:42:45.669Z,2.03
2018-06-23T09:45:16.557Z,1.57
2018-06-23T09:47:47.286Z,1.90
2018-06-23T09:50:18.105Z,1.10
2018-06-23T09:52:49.420Z,1.23
2018-06-23T09:55:20.287Z,1.20
2018-06-23T09:57:53.075Z,1.33
2018-06-23T10:00:30.135Z,1.40
2018-06-23T10:03:01.893Z,1.10
2018-06-23T10:05:32.531Z,1.10
2018-06-23T10:08:05.115Z,0.90
2018-06-23T10:23:44.495Z,1.20
2018-06-23T10:26:15.538Z,1.40
2018-06-23T10:28:46.619Z,1.33
2018-06-23T10:31:17.653Z,1.70
2018-06-23T10:33:48.823Z,1.60
2018-06-23T10:36:20.367Z,2.00
2018-06-23T10:38:51.335Z,1.83
2018-06-23T10:41:22.141Z,2.10
2018-06-23T10:43:53.017Z,1.70
2018-06-23T10:46:23.905Z,2.00
2018-06-23T10:49:08.728Z,2.20
2018-06-23T10:51:39.509Z,2.40
2018-06-23T10:54:10.391Z,3.17
2018-06-23T10:56:42.904Z,2.90
2018-06-23T10:59:15.952Z,2.30
2018-06-23T11:01:49.210Z,3.20
2018-06-23T11:04:19.992Z,3.40
2018-06-23T11:06:50.870Z,2.90
2018-06-23T11:09:21.656Z,2.87
2018-06-23T11:11:52.391Z,2.70
2018-06-23T11:14:23.349Z,3.23
2018-06-23T11:16:53.737Z,2.57
2018-06-23T11:19:24.384Z,1.87
2018-06-23T11:21:55.253Z,1.53
2018-06-23T11:24:26.613Z,1.70
2018-06-23T11:26:58.414Z,1.07
2018-06-23T11:29:29.703Z,1.40
2018-06-23T11:32:00.051Z,1.47
2018-06-23T11:34:30.741Z,1.20
2018-06-23T11:37:01.439Z,1.60
2018-06-23T11:39:32.540Z,1.50
2018-06-23T11:42:04.625Z,1.73
2018-06-23T11:44:35.456Z,1.60
2018-06-23T11:47:11.216Z,2.00
2018-06-23T11:49:43.035Z,1.90
2018-06-23T11:52:13.445Z,1.70
2018-06-23T11:54:44.085Z,1.73
2018-06-23T11:57:15.004Z,1.27
2018-06-23T11:59:46.011Z,1.17
2018-06-23T12:02:16.760Z,1.73
2018-06-23T12:04:47.718Z,1.27
2018-06-23T12:07:18.649Z,1.50
2018-06-23T12:09:49.389Z,2.07
2018-06-23T12:12:20.295Z,1.50
2018-06-23T12:14:51.105Z,1.50
2018-06-23T12:17:21.839Z,1.93
2018-06-23T12:19:52.618Z,1.90
2018-06-23T12:22:23.364Z,2.03
2018-06-23T12:24:54.229Z,1.80
2018-06-23T12:27:25.017Z,1.60
2018-06-23T12:29:55.864Z,1.60
2018-06-23T12:32:26.626Z,1.97
2018-06-23T12:34:57.600Z,1.57
2018-06-23T12:37:28.576Z,1.63
2018-06-23T12:39:59.360Z,1.80
2018-06-23T12:42:30.261Z,1.40
2018-06-23T12:45:01.081Z,1.37
2018-06-23T12:47:31.873Z,1.63
2018-06-23T12:50:02.875Z,1.87
2018-06-23T12:52:33.620Z,1.60
2018-06-23T12:55:04.445Z,2.10
2018-06-23T12:57:35.240Z,1.60
2018-06-23T13:00:07.962Z,1.70
2018-06-23T13:02:38.761Z,1.50
2018-06-23T13:05:09.631Z,1.30
2018-06-23T13:07:40.489Z,1.37
2018-06-23T13:10:10.847Z,1.27
2018-06-23T13:12:41.630Z,1.03
2018-06-23T13:15:12.562Z,1.43
2018-06-23T13:17:43.280Z,1.50
2018-06-23T13:20:14.050Z,1.53
2018-06-23T13:22:44.827Z,1.67
2018-06-23T13:25:15.585Z,1.40
2018-06-23T13:27:46.473Z,1.50
2018-06-23T13:30:17.253Z,1.20
2018-06-23T13:32:48.051Z,1.50
2018-06-23T13:35:18.792Z,1.50
2018-06-23T13:37:49.545Z,1.80
2018-06-23T13:40:20.394Z,1.80
2018-06-23T13:42:51.230Z,1.50
2018-06-23T13:45:22.063Z,2.13
2018-06-23T13:47:52.825Z,1.90
2018-06-23T13:50:23.634Z,2.20
2018-06-23T13:52:54.350Z,2.23
2018-06-23T13:55:25.362Z,1.70
2018-06-23T13:57:56.737Z,2.47
2018-06-23T14:00:27.878Z,2.43
2018-06-23T14:02:59.602Z,2.40
2018-06-23T14:05:32.448Z,2.40
